sensor_id;sensor_type;location;lat;lon;timestamp;pressure;altitude;pressure_sealevel;temperature;humidity
76137;BME280;68622;53.128;17.966;2023-06-26T00:00:04;101291.09;;;17.73;56.94
76137;BME280;68622;53.128;17.966;2023-06-26T00:02:34;101289.51;;;17.70;57.23
76137;BME280;68622;53.128;17.966;2023-06-26T00:05:00;101294.11;;;17.66;57.68
76137;BME280;68622;53.128;17.966;2023-06-26T00:07:29;101293.46;;;17.63;57.48
76137;BME280;68622;53.128;17.966;2023-06-26T00:09:57;101292.27;;;17.59;57.08
76137;BME280;68622;53.128;17.966;2023-06-26T00:12:25;101296.17;;;17.56;57.83
76137;BME280;68622;53.128;17.966;2023-06-26T00:14:52;101297.00;;;17.51;58.13
76137;BME280;68622;53.128;17.966;2023-06-26T00:17:18;101296.41;;;17.47;58.05
76137;BME280;68622;53.128;17.966;2023-06-26T00:19:45;101295.78;;;17.43;58.22
76137;BME280;68622;53.128;17.966;2023-06-26T00:22:12;101291.40;;;17.38;57.78
76137;BME280;68622;53.128;17.966;2023-06-26T00:24:38;101292.11;;;17.33;58.02
76137;BME280;68622;53.128;17.966;2023-06-26T00:27:05;101291.94;;;17.28;58.08
76137;BME280;68622;53.128;17.966;2023-06-26T00:29:32;101296.67;;;17.25;58.57
76137;BME280;68622;53.128;17.966;2023-06-26T00:35:30;101295.19;;;17.19;58.77
76137;BME280;68622;53.128;17.966;2023-06-26T00:37:56;101290.50;;;17.14;58.87
76137;BME280;68622;53.128;17.966;2023-06-26T00:40:23;101288.12;;;17.10;58.96
76137;BME280;68622;53.128;17.966;2023-06-26T00:42:50;101285.92;;;17.06;58.93
76137;BME280;68622;53.128;17.966;2023-06-26T00:45:17;101290.41;;;17.01;59.13
76137;BME280;68622;53.128;17.966;2023-06-26T00:47:44;101287.98;;;16.96;59.45
76137;BME280;68622;53.128;17.966;2023-06-26T00:50:11;101286.79;;;16.91;59.49
76137;BME280;68622;53.128;17.966;2023-06-26T00:52:38;101284.98;;;16.85;59.87
76137;BME280;68622;53.128;17.966;2023-06-26T00:55:04;101284.48;;;16.80;59.55
76137;BME280;68622;53.128;17.966;2023-06-26T00:57:31;101284.10;;;16.77;59.31
76137;BME280;68622;53.128;17.966;2023-06-26T01:00:00;101285.77;;;16.74;59.82
76137;BME280;68622;53.128;17.966;2023-06-26T01:02:28;101282.48;;;16.71;60.87
76137;BME280;68622;53.128;17.966;2023-06-26T01:05:01;101281.97;;;16.67;60.78
76137;BME280;68622;53.128;17.966;2023-06-26T01:07:30;101280.77;;;16.64;60.97
76137;BME280;68622;53.128;17.966;2023-06-26T01:09:58;101278.40;;;16.61;60.72
76137;BME280;68622;53.128;17.966;2023-06-26T01:12:25;101282.52;;;16.58;61.03
76137;BME280;68622;53.128;17.966;2023-06-26T01:14:52;101280.37;;;16.54;61.27
76137;BME280;68622;53.128;17.966;2023-06-26T01:17:19;101275.41;;;16.49;61.27
76137;BME280;68622;53.128;17.966;2023-06-26T01:19:46;101279.20;;;16.47;61.07
76137;BME280;68622;53.128;17.966;2023-06-26T01:27:30;101264.48;;;16.43;61.62
76137;BME280;68622;53.128;17.966;2023-06-26T01:30:02;101263.14;;;16.41;61.81
76137;BME280;68622;53.128;17.966;2023-06-26T01:32:31;101263.94;;;16.39;61.56
76137;BME280;68622;53.128;17.966;2023-06-26T01:34:59;101260.80;;;16.35;61.35
76137;BME280;68622;53.128;17.966;2023-06-26T01:37:27;101258.31;;;16.30;61.41
76137;BME280;68622;53.128;17.966;2023-06-26T01:39:54;101257.70;;;16.28;61.84
76137;BME280;68622;53.128;17.966;2023-06-26T01:42:20;101258.10;;;16.25;61.47
76137;BME280;68622;53.128;17.966;2023-06-26T01:44:47;101254.85;;;16.25;61.58
76137;BME280;68622;53.128;17.966;2023-06-26T01:47:20;101251.41;;;16.21;61.90
76137;BME280;68622;53.128;17.966;2023-06-26T01:49:56;101248.88;;;16.17;62.16
76137;BME280;68622;53.128;17.966;2023-06-26T01:52:31;101248.70;;;16.12;62.10
76137;BME280;68622;53.128;17.966;2023-06-26T01:55:15;101245.59;;;16.08;62.45
76137;BME280;68622;53.128;17.966;2023-06-26T01:57:45;101247.59;;;16.04;62.65
76137;BME280;68622;53.128;17.966;2023-06-26T02:00:15;101245.63;;;15.99;62.61
76137;BME280;68622;53.128;17.966;2023-06-26T02:02:44;101244.82;;;15.95;63.03
76137;BME280;68622;53.128;17.966;2023-06-26T02:05:13;101244.87;;;15.93;62.94
76137;BME280;68622;53.128;17.966;2023-06-26T02:07:41;101244.50;;;15.89;63.08
76137;BME280;68622;53.128;17.966;2023-06-26T02:10:08;101239.90;;;15.87;62.88
76137;BME280;68622;53.128;17.966;2023-06-26T02:12:35;101238.63;;;15.84;63.22
76137;BME280;68622;53.128;17.966;2023-06-26T02:15:03;101240.75;;;15.83;63.04
76137;BME280;68622;53.128;17.966;2023-06-26T02:17:30;101240.55;;;15.81;63.20
76137;BME280;68622;53.128;17.966;2023-06-26T02:19:57;101242.95;;;15.77;63.15
76137;BME280;68622;53.128;17.966;2023-06-26T02:22:24;101241.88;;;15.74;63.28
76137;BME280;68622;53.128;17.966;2023-06-26T02:24:51;101239.75;;;15.71;63.56
76137;BME280;68622;53.128;17.966;2023-06-26T02:27:17;101242.96;;;15.71;63.35
76137;BME280;68622;53.128;17.966;2023-06-26T02:29:44;101239.69;;;15.72;63.53
76137;BME280;68622;53.128;17.966;2023-06-26T02:32:11;101241.10;;;15.72;63.90
76137;BME280;68622;53.128;17.966;2023-06-26T02:34:37;101245.52;;;15.71;63.79
76137;BME280;68622;53.128;17.966;2023-06-26T02:37:04;101243.38;;;15.70;63.92
76137;BME280;68622;53.128;17.966;2023-06-26T02:39:34;101245.73;;;15.69;64.24
76137;BME280;68622;53.128;17.966;2023-06-26T02:42:01;101245.32;;;15.68;63.95
76137;BME280;68622;53.128;17.966;2023-06-26T02:44:28;101245.55;;;15.67;63.90
76137;BME280;68622;53.128;17.966;2023-06-26T02:46:54;101246.35;;;15.68;64.06
76137;BME280;68622;53.128;17.966;2023-06-26T02:49:21;101243.88;;;15.70;63.73
76137;BME280;68622;53.128;17.966;2023-06-26T02:51:48;101245.04;;;15.73;63.90
76137;BME280;68622;53.128;17.966;2023-06-26T02:54:24;101246.19;;;15.75;63.76
76137;BME280;68622;53.128;17.966;2023-06-26T02:56:54;101250.04;;;15.77;64.15
76137;BME280;68622;53.128;17.966;2023-06-26T02:59:24;101250.91;;;15.80;63.33
76137;BME280;68622;53.128;17.966;2023-06-26T03:01:51;101246.00;;;15.83;63.89
76137;BME280;68622;53.128;17.966;2023-06-26T03:04:18;101250.10;;;15.83;64.20
76137;BME280;68622;53.128;17.966;2023-06-26T03:06:48;101248.48;;;15.85;63.62
76137;BME280;68622;53.128;17.966;2023-06-26T03:09:15;101249.03;;;15.90;63.31
76137;BME280;68622;53.128;17.966;2023-06-26T03:11:44;101246.65;;;15.96;63.20
76137;BME280;68622;53.128;17.966;2023-06-26T03:14:11;101246.44;;;16.04;63.24
76137;BME280;68622;53.128;17.966;2023-06-26T03:16:38;101245.92;;;16.07;63.32
76137;BME280;68622;53.128;17.966;2023-06-26T03:19:05;101244.17;;;16.06;63.89
76137;BME280;68622;53.128;17.966;2023-06-26T03:21:39;101241.11;;;16.09;63.54
76137;BME280;68622;53.128;17.966;2023-06-26T03:24:06;101237.45;;;16.12;63.19
76137;BME280;68622;53.128;17.966;2023-06-26T03:26:32;101232.80;;;16.18;62.94
76137;BME280;68622;53.128;17.966;2023-06-26T03:29:00;101231.45;;;16.23;63.29
76137;BME280;68622;53.128;17.966;2023-06-26T03:31:27;101233.23;;;16.27;63.13
76137;BME280;68622;53.128;17.966;2023-06-26T03:33:53;101232.37;;;16.32;63.48
76137;BME280;68622;53.128;17.966;2023-06-26T03:36:21;101231.24;;;16.40;63.36
76137;BME280;68622;53.128;17.966;2023-06-26T03:38:47;101229.24;;;16.64;62.68
76137;BME280;68622;53.128;17.966;2023-06-26T03:41:14;101233.20;;;17.05;62.03
76137;BME280;68622;53.128;17.966;2023-06-26T03:43:41;101231.17;;;17.44;61.14
76137;BME280;68622;53.128;17.966;2023-06-26T03:46:17;101231.23;;;17.73;60.47
76137;BME280;68622;53.128;17.966;2023-06-26T03:48:44;101234.30;;;18.01;59.77
76137;BME280;68622;53.128;17.966;2023-06-26T03:51:11;101232.66;;;18.22;59.13
76137;BME280;68622;53.128;17.966;2023-06-26T03:53:38;101233.42;;;18.44;58.48
76137;BME280;68622;53.128;17.966;2023-06-26T03:56:05;101230.38;;;18.64;58.09
76137;BME280;68622;53.128;17.966;2023-06-26T03:58:32;101231.34;;;18.87;57.52
76137;BME280;68622;53.128;17.966;2023-06-26T04:00:58;101233.08;;;19.12;57.20
76137;BME280;68622;53.128;17.966;2023-06-26T04:03:25;101226.23;;;19.38;56.06
76137;BME280;68622;53.128;17.966;2023-06-26T04:05:52;101223.63;;;19.60;55.78
76137;BME280;68622;53.128;17.966;2023-06-26T04:08:18;101224.20;;;19.72;55.44
76137;BME280;68622;53.128;17.966;2023-06-26T04:10:46;101220.27;;;19.81;55.07
76137;BME280;68622;53.128;17.966;2023-06-26T04:13:14;101222.36;;;19.90;54.50
76137;BME280;68622;53.128;17.966;2023-06-26T04:15:41;101222.48;;;19.95;54.64
76137;BME280;68622;53.128;17.966;2023-06-26T04:18:07;101221.16;;;20.10;54.03
76137;BME280;68622;53.128;17.966;2023-06-26T04:20:39;101220.16;;;20.23;54.02
76137;BME280;68622;53.128;17.966;2023-06-26T04:23:07;101217.52;;;20.37;53.55
76137;BME280;68622;53.128;17.966;2023-06-26T04:25:34;101217.13;;;20.49;53.29
76137;BME280;68622;53.128;17.966;2023-06-26T04:28:00;101216.35;;;20.49;52.76
76137;BME280;68622;53.128;17.966;2023-06-26T04:30:27;101216.95;;;20.59;53.08
76137;BME280;68622;53.128;17.966;2023-06-26T04:32:53;101218.98;;;20.73;52.74
76137;BME280;68622;53.128;17.966;2023-06-26T04:35:20;101219.17;;;20.84;52.93
76137;BME280;68622;53.128;17.966;2023-06-26T04:37:47;101219.34;;;20.82;52.50
76137;BME280;68622;53.128;17.966;2023-06-26T04:40:14;101219.33;;;20.97;52.33
76137;BME280;68622;53.128;17.966;2023-06-26T04:42:40;101219.98;;;21.08;52.67
76137;BME280;68622;53.128;17.966;2023-06-26T04:45:07;101213.70;;;21.28;52.10
76137;BME280;68622;53.128;17.966;2023-06-26T04:47:34;101220.47;;;21.40;51.87
76137;BME280;68622;53.128;17.966;2023-06-26T04:50:00;101216.53;;;21.60;51.91
76137;BME280;68622;53.128;17.966;2023-06-26T04:52:27;101212.73;;;21.64;51.50
76137;BME280;68622;53.128;17.966;2023-06-26T04:54:53;101212.30;;;21.69;51.03
76137;BME280;68622;53.128;17.966;2023-06-26T04:57:20;101211.62;;;21.64;51.10
76137;BME280;68622;53.128;17.966;2023-06-26T04:59:47;101213.48;;;21.86;51.32
76137;BME280;68622;53.128;17.966;2023-06-26T05:02:13;101216.64;;;22.02;50.86
76137;BME280;68622;53.128;17.966;2023-06-26T05:04:41;101218.55;;;22.03;50.46
76137;BME280;68622;53.128;17.966;2023-06-26T05:07:09;101220.83;;;22.16;50.73
76137;BME280;68622;53.128;17.966;2023-06-26T05:09:36;101216.84;;;22.23;51.02
76137;BME280;68622;53.128;17.966;2023-06-26T05:12:02;101216.33;;;22.28;51.23
76137;BME280;68622;53.128;17.966;2023-06-26T05:14:29;101216.73;;;22.40;50.55
76137;BME280;68622;53.128;17.966;2023-06-26T05:16:56;101210.14;;;22.48;50.22
76137;BME280;68622;53.128;17.966;2023-06-26T05:19:22;101210.58;;;22.67;50.17
76137;BME280;68622;53.128;17.966;2023-06-26T05:21:50;101208.09;;;22.79;49.73
76137;BME280;68622;53.128;17.966;2023-06-26T05:24:19;101208.09;;;22.89;50.32
